sensor_id;sensor_type;location;lat;lon;timestamp;temperature;humidity
23568;DHT22;11962;50.838;4.430;2023-07-31T00:01:57;19.00;99.90
23568;DHT22;11962;50.838;4.430;2023-07-31T00:04:23;19.00;99.90
23568;DHT22;11962;50.838;4.430;2023-07-31T00:06:49;19.00;99.90
23568;DHT22;11962;50.838;4.430;2023-07-31T00:09:14;19.00;99.90
23568;DHT22;11962;50.838;4.430;2023-07-31T00:11:40;19.00;99.90
23568;DHT22;11962;50.838;4.430;2023-07-31T00:14:06;19.10;99.90
23568;DHT22;11962;50.838;4.430;2023-07-31T00:16:32;19.00;99.90
23568;DHT22;11962;50.838;4.430;2023-07-31T00:18:57;18.90;99.90
23568;DHT22;11962;50.838;4.430;2023-07-31T00:21:23;19.00;99.90
23568;DHT22;11962;50.838;4.430;2023-07-31T00:23:49;19.00;99.90
23568;DHT22;11962;50.838;4.430;2023-07-31T00:26:15;19.00;99.90
23568;DHT22;11962;50.838;4.430;2023-07-31T00:28:40;19.00;99.90
23568;DHT22;11962;50.838;4.430;2023-07-31T00:31:06;19.10;99.90
23568;DHT22;11962;50.838;4.430;2023-07-31T00:33:34;19.00;99.90
23568;DHT22;11962;50.838;4.430;2023-07-31T00:36:00;19.00;99.90
23568;DHT22;11962;50.838;4.430;2023-07-31T00:38:26;19.00;99.90
23568;DHT22;11962;50.838;4.430;2023-07-31T00:40:51;19.00;99.90
23568;DHT22;11962;50.838;4.430;2023-07-31T00:43:17;19.00;99.90
23568;DHT22;11962;50.838;4.430;2023-07-31T00:45:44;19.00;99.90
23568;DHT22;11962;50.838;4.430;2023-07-31T00:48:10;19.10;99.90
23568;DHT22;11962;50.838;4.430;2023-07-31T00:50:37;19.10;99.90
23568;DHT22;11962;50.838;4.430;2023-07-31T00:53:03;19.10;99.90
23568;DHT22;11962;50.838;4.430;2023-07-31T00:55:30;19.10;99.90
23568;DHT22;11962;50.838;4.430;2023-07-31T00:57:56;19.10;99.90
23568;DHT22;11962;50.838;4.430;2023-07-31T01:00:22;19.00;99.90
23568;DHT22;11962;50.838;4.430;2023-07-31T01:02:49;19.00;99.90
23568;DHT22;11962;50.838;4.430;2023-07-31T01:05:15;19.10;99.90
23568;DHT22;11962;50.838;4.430;2023-07-31T01:07:56;19.10;99.90
23568;DHT22;11962;50.838;4.430;2023-07-31T01:10:37;19.10;99.90
23568;DHT22;11962;50.838;4.430;2023-07-31T01:13:03;19.10;99.90
23568;DHT22;11962;50.838;4.430;2023-07-31T01:15:29;19.00;99.90
23568;DHT22;11962;50.838;4.430;2023-07-31T01:17:55;19.00;99.90
23568;DHT22;11962;50.838;4.430;2023-07-31T01:20:25;18.90;99.90
23568;DHT22;11962;50.838;4.430;2023-07-31T01:23:19;18.90;99.90
23568;DHT22;11962;50.838;4.430;2023-07-31T01:26:11;18.90;99.90
23568;DHT22;11962;50.838;4.430;2023-07-31T01:31:33;18.90;99.90
23568;DHT22;11962;50.838;4.430;2023-07-31T01:34:01;18.90;99.90
23568;DHT22;11962;50.838;4.430;2023-07-31T01:36:28;19.00;99.90
23568;DHT22;11962;50.838;4.430;2023-07-31T01:38:59;19.00;99.90
23568;DHT22;11962;50.838;4.430;2023-07-31T01:41:25;19.00;99.90
23568;DHT22;11962;50.838;4.430;2023-07-31T01:43:51;18.90;99.90
23568;DHT22;11962;50.838;4.430;2023-07-31T01:46:17;19.00;99.90
23568;DHT22;11962;50.838;4.430;2023-07-31T01:48:43;19.00;99.90
23568;DHT22;11962;50.838;4.430;2023-07-31T01:51:08;19.00;99.90
23568;DHT22;11962;50.838;4.430;2023-07-31T01:53:34;19.00;99.90
23568;DHT22;11962;50.838;4.430;2023-07-31T01:56:00;19.00;99.90
23568;DHT22;11962;50.838;4.430;2023-07-31T01:58:26;19.00;99.90
23568;DHT22;11962;50.838;4.430;2023-07-31T02:00:51;18.90;99.90
23568;DHT22;11962;50.838;4.430;2023-07-31T02:03:17;19.00;99.90
23568;DHT22;11962;50.838;4.430;2023-07-31T02:05:48;19.00;99.90
23568;DHT22;11962;50.838;4.430;2023-07-31T02:08:14;19.00;99.90
23568;DHT22;11962;50.838;4.430;2023-07-31T02:10:40;19.00;99.90
23568;DHT22;11962;50.838;4.430;2023-07-31T02:13:06;19.10;99.90
23568;DHT22;11962;50.838;4.430;2023-07-31T02:15:32;19.00;99.90
23568;DHT22;11962;50.838;4.430;2023-07-31T02:17:58;19.10;99.90
23568;DHT22;11962;50.838;4.430;2023-07-31T02:20:24;19.00;99.90
23568;DHT22;11962;50.838;4.430;2023-07-31T02:22:50;19.00;99.90
23568;DHT22;11962;50.838;4.430;2023-07-31T02:25:15;19.10;99.90
23568;DHT22;11962;50.838;4.430;2023-07-31T02:27:41;19.10;99.90
23568;DHT22;11962;50.838;4.430;2023-07-31T02:30:07;19.10;99.90
23568;DHT22;11962;50.838;4.430;2023-07-31T02:32:33;19.20;99.90
23568;DHT22;11962;50.838;4.430;2023-07-31T02:34:59;19.10;99.90
23568;DHT22;11962;50.838;4.430;2023-07-31T02:37:25;19.10;99.90
23568;DHT22;11962;50.838;4.430;2023-07-31T02:39:51;19.00;99.90
23568;DHT22;11962;50.838;4.430;2023-07-31T02:42:16;19.00;99.90
23568;DHT22;11962;50.838;4.430;2023-07-31T02:44:42;19.00;99.90
23568;DHT22;11962;50.838;4.430;2023-07-31T02:47:08;19.00;99.90
23568;DHT22;11962;50.838;4.430;2023-07-31T02:49:34;19.00;99.90
23568;DHT22;11962;50.838;4.430;2023-07-31T02:51:59;19.00;99.90
23568;DHT22;11962;50.838;4.430;2023-07-31T02:54:25;19.10;99.90
23568;DHT22;11962;50.838;4.430;2023-07-31T02:56:51;19.10;99.90
23568;DHT22;11962;50.838;4.430;2023-07-31T02:59:17;19.00;99.90
23568;DHT22;11962;50.838;4.430;2023-07-31T03:01:44;19.00;99.90
23568;DHT22;11962;50.838;4.430;2023-07-31T03:04:09;19.10;99.90
23568;DHT22;11962;50.838;4.430;2023-07-31T03:06:35;19.10;99.90
23568;DHT22;11962;50.838;4.430;2023-07-31T03:09:01;19.10;99.90
23568;DHT22;11962;50.838;4.430;2023-07-31T03:11:26;19.10;99.90
23568;DHT22;11962;50.838;4.430;2023-07-31T03:13:52;19.10;99.90
23568;DHT22;11962;50.838;4.430;2023-07-31T03:16:18;19.10;99.90
23568;DHT22;11962;50.838;4.430;2023-07-31T03:18:43;19.00;99.90
23568;DHT22;11962;50.838;4.430;2023-07-31T03:21:09;19.10;99.90
23568;DHT22;11962;50.838;4.430;2023-07-31T03:23:35;19.00;99.90
23568;DHT22;11962;50.838;4.430;2023-07-31T03:26:02;19.00;99.90
23568;DHT22;11962;50.838;4.430;2023-07-31T03:28:29;19.00;99.90
23568;DHT22;11962;50.838;4.430;2023-07-31T03:30:55;18.90;99.90
23568;DHT22;11962;50.838;4.430;2023-07-31T03:33:21;18.80;99.90
23568;DHT22;11962;50.838;4.430;2023-07-31T03:35:47;18.90;99.90
23568;DHT22;11962;50.838;4.430;2023-07-31T03:38:13;18.90;99.90
23568;DHT22;11962;50.838;4.430;2023-07-31T03:40:39;18.80;99.90
23568;DHT22;11962;50.838;4.430;2023-07-31T03:43:05;18.80;99.90
23568;DHT22;11962;50.838;4.430;2023-07-31T03:45:31;18.70;99.90
23568;DHT22;11962;50.838;4.430;2023-07-31T03:47:57;18.70;99.90
23568;DHT22;11962;50.838;4.430;2023-07-31T03:50:22;18.80;99.90
23568;DHT22;11962;50.838;4.430;2023-07-31T03:52:48;18.70;99.90
23568;DHT22;11962;50.838;4.430;2023-07-31T03:55:14;18.80;99.90
23568;DHT22;11962;50.838;4.430;2023-07-31T03:57:40;18.80;99.90
23568;DHT22;11962;50.838;4.430;2023-07-31T04:00:06;18.80;99.90
23568;DHT22;11962;50.838;4.430;2023-07-31T04:02:32;18.80;99.90
23568;DHT22;11962;50.838;4.430;2023-07-31T04:04:57;18.80;99.90
23568;DHT22;11962;50.838;4.430;2023-07-31T04:07:23;18.70;99.90
23568;DHT22;11962;50.838;4.430;2023-07-31T04:09:49;18.70;99.90
23568;DHT22;11962;50.838;4.430;2023-07-31T04:12:14;18.70;99.90
23568;DHT22;11962;50.838;4.430;2023-07-31T04:14:40;18.70;99.90
23568;DHT22;11962;50.838;4.430;2023-07-31T04:17:06;18.70;99.90
23568;DHT22;11962;50.838;4.430;2023-07-31T04:19:31;18.80;99.90
23568;DHT22;11962;50.838;4.430;2023-07-31T04:21:57;18.70;99.90
23568;DHT22;11962;50.838;4.430;2023-07-31T04:24:23;18.60;99.90
23568;DHT22;11962;50.838;4.430;2023-07-31T04:26:52;18.60;99.90
23568;DHT22;11962;50.838;4.430;2023-07-31T04:29:19;18.60;99.90
23568;DHT22;11962;50.838;4.430;2023-07-31T04:31:45;18.70;99.90
23568;DHT22;11962;50.838;4.430;2023-07-31T04:34:10;18.70;99.90
23568;DHT22;11962;50.838;4.430;2023-07-31T04:36:37;18.60;99.90
23568;DHT22;11962;50.838;4.430;2023-07-31T04:39:03;18.70;99.90
23568;DHT22;11962;50.838;4.430;2023-07-31T04:41:28;18.70;99.90
23568;DHT22;11962;50.838;4.430;2023-07-31T04:43:54;18.70;99.90
23568;DHT22;11962;50.838;4.430;2023-07-31T04:46:20;18.80;99.90
23568;DHT22;11962;50.838;4.430;2023-07-31T04:48:45;18.80;99.90
23568;DHT22;11962;50.838;4.430;2023-07-31T04:51:11;18.90;99.90
23568;DHT22;11962;50.838;4.430;2023-07-31T04:53:37;18.90;99.90
23568;DHT22;11962;50.838;4.430;2023-07-31T04:56:03;18.90;99.90
23568;DHT22;11962;50.838;4.430;2023-07-31T04:58:29;18.80;99.90
23568;DHT22;11962;50.838;4.430;2023-07-31T05:00:54;18.80;99.90
23568;DHT22;11962;50.838;4.430;2023-07-31T05:03:20;18.80;99.90
23568;DHT22;11962;50.838;4.430;2023-07-31T05:05:46;18.80;99.90
23568;DHT22;11962;50.838;4.430;2023-07-31T05:08:12;18.80;99.90
23568;DHT22;11962;50.838;4.430;2023-07-31T05:10:37;18.80;99.90
23568;DHT22;11962;50.838;4.430;2023-07-31T05:13:03;18.70;99.90
23568;DHT22;11962;50.838;4.430;2023-07-31T05:15:29;18.60;99.90
23568;DHT22;11962;50.838;4.430;2023-07-31T05:17:55;18.60;99.90
23568;DHT22;11962;50.838;4.430;2023-07-31T05:20:21;18.70;99.90
23568;DHT22;11962;50.838;4.430;2023-07-31T05:22:47;18.60;99.90
23568;DHT22;11962;50.838;4.430;2023-07-31T05:25:13;18.60;99.90
23568;DHT22;11962;50.838;4.430;2023-07-31T05:27:39;18.60;99.90
23568;DHT22;11962;50.838;4.430;2023-07-31T05:30:05;18.60;99.90
23568;DHT22;11962;50.838;4.430;2023-07-31T05:32:32;18.50;99.90
23568;DHT22;11962;50.838;4.430;2023-07-31T05:34:58;18.50;99.90
23568;DHT22;11962;50.838;4.430;2023-07-31T05:37:24;18.40;99.90
23568;DHT22;11962;50.838;4.430;2023-07-31T05:39:50;18.40;99.90
23568;DHT22;11962;50.838;4.430;2023-07-31T05:42:16;18.40;99.90
23568;DHT22;11962;50.838;4.430;2023-07-31T05:44:42;18.40;99.90
23568;DHT22;11962;50.838;4.430;2023-07-31T05:47:09;18.30;99.90
23568;DHT22;11962;50.838;4.430;2023-07-31T05:49:34;18.30;99.90
23568;DHT22;11962;50.838;4.430;2023-07-31T05:52:00;18.40;99.90
23568;DHT22;11962;50.838;4.430;2023-07-31T05:54:26;18.30;99.90
23568;DHT22;11962;50.838;4.430;2023-07-31T05:56:52;18.30;99.90
23568;DHT22;11962;50.838;4.430;2023-07-31T05:59:17;18.40;99.90
23568;DHT22;11962;50.838;4.430;2023-07-31T06:01:43;18.40;99.90
23568;DHT22;11962;50.838;4.430;2023-07-31T06:04:09;18.40;99.90
23568;DHT22;11962;50.838;4.430;2023-07-31T06:06:35;18.50;99.90
23568;DHT22;11962;50.838;4.430;2023-07-31T06:09:00;18.40;99.90
23568;DHT22;11962;50.838;4.430;2023-07-31T06:11:26;18.50;99.90
23568;DHT22;11962;50.838;4.430;2023-07-31T06:13:52;18.50;99.90
23568;DHT22;11962;50.838;4.430;2023-07-31T06:16:18;18.60;99.90
23568;DHT22;11962;50.838;4.430;2023-07-31T06:18:43;18.70;99.90
23568;DHT22;11962;50.838;4.430;2023-07-31T06:21:10;18.70;99.90
23568;DHT22;11962;50.838;4.430;2023-07-31T06:23:36;18.70;99.90
23568;DHT22;11962;50.838;4.430;2023-07-31T06:26:02;18.70;99.90
23568;DHT22;11962;50.838;4.430;2023-07-31T06:28:28;18.80;99.90
23568;DHT22;11962;50.838;4.430;2023-07-31T06:31:00;18.90;99.90
23568;DHT22;11962;50.838;4.430;2023-07-31T06:33:26;18.90;99.90
23568;DHT22;11962;50.838;4.430;2023-07-31T06:35:52;18.90;99.90
23568;DHT22;11962;50.838;4.430;2023-07-31T06:38:23;18.90;99.90
23568;DHT22;11962;50.838;4.430;2023-07-31T06:40:49;18.90;99.90
23568;DHT22;11962;50.838;4.430;2023-07-31T06:43:15;19.00;99.90
23568;DHT22;11962;50.838;4.430;2023-07-31T06:45:41;19.00;99.90
23568;DHT22;11962;50.838;4.430;2023-07-31T06:48:07;19.00;99.90
23568;DHT22;11962;50.838;4.430;2023-07-31T06:50:33;19.10;99.90
23568;DHT22;11962;50.838;4.430;2023-07-31T06:52:59;19.10;99.90
23568;DHT22;11962;50.838;4.430;2023-07-31T06:55:26;19.30;99.90
23568;DHT22;11962;50.838;4.430;2023-07-31T06:57:53;19.50;99.90
23568;DHT22;11962;50.838;4.430;2023-07-31T07:00:21;19.70;99.90
23568;DHT22;11962;50.838;4.430;2023-07-31T07:02:47;20.00;99.90
23568;DHT22;11962;50.838;4.430;2023-07-31T07:05:14;20.20;99.90
23568;DHT22;11962;50.838;4.430;2023-07-31T07:07:40;20.30;99.90
23568;DHT22;11962;50.838;4.430;2023-07-31T07:10:07;20.20;99.90
23568;DHT22;11962;50.838;4.430;2023-07-31T07:12:33;20.20;99.90
23568;DHT22;11962;50.838;4.430;2023-07-31T07:14:59;20.30;99.90
23568;DHT22;11962;50.838;4.430;2023-07-31T07:17:29;20.40;99.90
23568;DHT22;11962;50.838;4.430;2023-07-31T07:19:59;20.60;99.90
23568;DHT22;11962;50.838;4.430;2023-07-31T07:22:26;20.80;99.90
23568;DHT22;11962;50.838;4.430;2023-07-31T07:24:53;21.00;99.90
23568;DHT22;11962;50.838;4.430;2023-07-31T07:27:18;21.10;99.90
23568;DHT22;11962;50.838;4.430;2023-07-31T07:29:45;21.10;99.90
23568;DHT22;11962;50.838;4.430;2023-07-31T07:32:11;20.90;99.90
23568;DHT22;11962;50.838;4.430;2023-07-31T07:34:37;20.90;99.90
23568;DHT22;11962;50.838;4.430;2023-07-31T07:37:03;20.80;99.90
23568;DHT22;11962;50.838;4.430;2023-07-31T07:39:29;20.70;99.90
23568;DHT22;11962;50.838;4.430;2023-07-31T07:41:55;20.70;99.90
23568;DHT22;11962;50.838;4.430;2023-07-31T07:44:21;20.70;99.90
23568;DHT22;11962;50.838;4.430;2023-07-31T07:46:47;20.70;99.90
23568;DHT22;11962;50.838;4.430;2023-07-31T07:49:12;20.70;99.90
23568;DHT22;11962;50.838;4.430;2023-07-31T07:51:38;20.70;99.90
23568;DHT22;11962;50.838;4.430;2023-07-31T07:54:04;20.70;99.90
23568;DHT22;11962;50.838;4.430;2023-07-31T07:56:30;20.80;99.90
23568;DHT22;11962;50.838;4.430;2023-07-31T07:58:55;20.80;99.90
23568;DHT22;11962;50.838;4.430;2023-07-31T08:01:21;20.80;99.90
23568;DHT22;11962;50.838;4.430;2023-07-31T08:03:47;20.80;99.90
23568;DHT22;11962;50.838;4.430;2023-07-31T08:06:14;20.80;99.90
23568;DHT22;11962;50.838;4.430;2023-07-31T08:08:40;20.90;99.90
23568;DHT22;11962;50.838;4.430;2023-07-31T08:11:06;20.90;99.90
23568;DHT22;11962;50.838;4.430;2023-07-31T08:13:31;20.90;99.90
23568;DHT22;11962;50.838;4.430;2023-07-31T08:15:57;20.80;99.90
23568;DHT22;11962;50.838;4.430;2023-07-31T08:18:23;20.80;99.90
23568;DHT22;11962;50.838;4.430;2023-07-31T08:20:49;20.80;99.90
23568;DHT22;11962;50.838;4.430;2023-07-31T08:23:14;20.80;99.90
23568;DHT22;11962;50.838;4.430;2023-07-31T08:25:40;21.00;99.90
23568;DHT22;11962;50.838;4.430;2023-07-31T08:28:06;21.20;99.90
23568;DHT22;11962;50.838;4.430;2023-07-31T08:30:32;21.30;99.90
23568;DHT22;11962;50.838;4.430;2023-07-31T08:33:01;21.20;99.90
23568;DHT22;11962;50.838;4.430;2023-07-31T08:35:28;21.20;99.90
23568;DHT22;11962;50.838;4.430;2023-07-31T08:37:54;21.10;99.90
23568;DHT22;11962;50.838;4.430;2023-07-31T08:40:20;21.00;99.90
23568;DHT22;11962;50.838;4.430;2023-07-31T08:42:51;20.90;99.90
23568;DHT22;11962;50.838;4.430;2023-07-31T08:45:17;21.10;99.90
23568;DHT22;11962;50.838;4.430;2023-07-31T08:47:51;21.10;99.90
23568;DHT22;11962;50.838;4.430;2023-07-31T08:50:18;21.10;99.90
23568;DHT22;11962;50.838;4.430;2023-07-31T08:52:46;21.00;99.90
23568;DHT22;11962;50.838;4.430;2023-07-31T08:55:12;21.00;99.90
23568;DHT22;11962;50.838;4.430;2023-07-31T08:57:39;21.00;99.90
23568;DHT22;11962;50.838;4.430;2023-07-31T09:00:06;21.10;99.90
23568;DHT22;11962;50.838;4.430;2023-07-31T09:02:50;21.10;99.90
23568;DHT22;11962;50.838;4.430;2023-07-31T09:05:17;21.20;99.90
23568;DHT22;11962;50.838;4.430;2023-07-31T09:07:47;21.20;99.90
23568;DHT22;11962;50.838;4.430;2023-07-31T09:10:13;21.20;99.90
23568;DHT22;11962;50.838;4.430;2023-07-31T09:12:39;21.10;99.90
23568;DHT22;11962;50.838;4.430;2023-07-31T09:15:06;21.10;99.90
23568;DHT22;11962;50.838;4.430;2023-07-31T09:17:33;21.20;99.90
23568;DHT22;11962;50.838;4.430;2023-07-31T09:20:19;21.40;99.90
23568;DHT22;11962;50.838;4.430;2023-07-31T09:22:45;21.50;99.90
23568;DHT22;11962;50.838;4.430;2023-07-31T09:25:19;21.60;99.90
23568;DHT22;11962;50.838;4.430;2023-07-31T09:27:59;21.60;99.90
23568;DHT22;11962;50.838;4.430;2023-07-31T09:30:25;21.60;99.90
23568;DHT22;11962;50.838;4.430;2023-07-31T09:33:02;21.90;99.90
23568;DHT22;11962;50.838;4.430;2023-07-31T09:35:33;21.90;99.90
23568;DHT22;11962;50.838;4.430;2023-07-31T09:38:13;21.90;99.90
23568;DHT22;11962;50.838;4.430;2023-07-31T09:40:41;21.80;99.90
23568;DHT22;11962;50.838;4.430;2023-07-31T09:43:08;21.70;99.90
23568;DHT22;11962;50.838;4.430;2023-07-31T09:45:39;21.60;99.90
23568;DHT22;11962;50.838;4.430;2023-07-31T09:48:23;21.50;99.90
23568;DHT22;11962;50.838;4.430;2023-07-31T09:50:53;21.40;99.90
23568;DHT22;11962;50.838;4.430;2023-07-31T09:53:19;21.50;99.90
23568;DHT22;11962;50.838;4.430;2023-07-31T09:55:45;21.60;99.90
23568;DHT22;11962;50.838;4.430;2023-07-31T09:58:12;21.70;99.90
23568;DHT22;11962;50.838;4.430;2023-07-31T10:00:39;21.80;99.90
23568;DHT22;11962;50.838;4.430;2023-07-31T10:03:07;21.80;99.90
23568;DHT22;11962;50.838;4.430;2023-07-31T10:05:50;21.80;99.90
23568;DHT22;11962;50.838;4.430;2023-07-31T10:08:18;21.80;99.90
23568;DHT22;11962;50.838;4.430;2023-07-31T10:10:45;21.70;99.90
23568;DHT22;11962;50.838;4.430;2023-07-31T10:13:12;21.70;99.90
23568;DHT22;11962;50.838;4.430;2023-07-31T10:15:38;21.80;99.90
23568;DHT22;11962;50.838;4.430;2023-07-31T10:18:06;21.90;99.90
23568;DHT22;11962;50.838;4.430;2023-07-31T10:20:33;22.00;99.90
23568;DHT22;11962;50.838;4.430;2023-07-31T10:22:59;22.30;99.90
23568;DHT22;11962;50.838;4.430;2023-07-31T10:25:27;22.70;99.90
23568;DHT22;11962;50.838;4.430;2023-07-31T10:27:53;23.00;99.90
23568;DHT22;11962;50.838;4.430;2023-07-31T10:30:23;23.00;99.90
23568;DHT22;11962;50.838;4.430;2023-07-31T10:32:51;23.20;99.90
23568;DHT22;11962;50.838;4.430;2023-07-31T10:35:18;23.40;99.90
23568;DHT22;11962;50.838;4.430;2023-07-31T10:37:44;23.50;99.90
23568;DHT22;11962;50.838;4.430;2023-07-31T10:40:17;23.50;99.90
23568;DHT22;11962;50.838;4.430;2023-07-31T10:42:55;23.30;99.90
23568;DHT22;11962;50.838;4.430;2023-07-31T10:45:36;23.00;99.90
23568;DHT22;11962;50.838;4.430;2023-07-31T10:48:07;22.80;99.90
23568;DHT22;11962;50.838;4.430;2023-07-31T10:50:38;22.60;99.90
23568;DHT22;11962;50.838;4.430;2023-07-31T10:53:25;22.60;99.90
23568;DHT22;11962;50.838;4.430;2023-07-31T10:55:52;22.70;99.90
23568;DHT22;11962;50.838;4.430;2023-07-31T10:58:19;22.70;99.90
23568;DHT22;11962;50.838;4.430;2023-07-31T11:00:48;22.70;99.90
23568;DHT22;11962;50.838;4.430;2023-07-31T11:03:16;22.70;99.90
23568;DHT22;11962;50.838;4.430;2023-07-31T11:08:24;22.70;99.90
23568;DHT22;11962;50.838;4.430;2023-07-31T11:13:27;22.60;99.90
23568;DHT22;11962;50.838;4.430;2023-07-31T11:15:52;22.70;99.90
23568;DHT22;11962;50.838;4.430;2023-07-31T11:18:18;22.80;99.90
23568;DHT22;11962;50.838;4.430;2023-07-31T11:20:44;23.10;99.90
23568;DHT22;11962;50.838;4.430;2023-07-31T11:23:10;23.20;99.90
23568;DHT22;11962;50.838;4.430;2023-07-31T11:25:37;23.40;99.90
23568;DHT22;11962;50.838;4.430;2023-07-31T11:28:08;23.50;99.90
23568;DHT22;11962;50.838;4.430;2023-07-31T11:30:34;23.50;99.90
23568;DHT22;11962;50.838;4.430;2023-07-31T11:33:02;23.40;99.90
23568;DHT22;11962;50.838;4.430;2023-07-31T11:35:32;23.30;99.90
23568;DHT22;11962;50.838;4.430;2023-07-31T11:37:59;23.10;99.90
23568;DHT22;11962;50.838;4.430;2023-07-31T11:40:25;23.30;99.90
23568;DHT22;11962;50.838;4.430;2023-07-31T11:42:58;23.50;99.90
23568;DHT22;11962;50.838;4.430;2023-07-31T11:45:30;23.70;99.90
23568;DHT22;11962;50.838;4.430;2023-07-31T11:47:56;23.70;99.90
23568;DHT22;11962;50.838;4.430;2023-07-31T11:50:23;23.60;99.90
23568;DHT22;11962;50.838;4.430;2023-07-31T11:52:59;23.50;99.90
23568;DHT22;11962;50.838;4.430;2023-07-31T11:55:26;23.40;99.90
23568;DHT22;11962;50.838;4.430;2023-07-31T11:57:55;23.50;99.90
23568;DHT22;11962;50.838;4.430;2023-07-31T12:00:21;23.50;99.90
23568;DHT22;11962;50.838;4.430;2023-07-31T12:02:47;23.60;99.90
23568;DHT22;11962;50.838;4.430;2023-07-31T12:05:13;23.60;99.90
23568;DHT22;11962;50.838;4.430;2023-07-31T12:07:53;23.60;99.90
23568;DHT22;11962;50.838;4.430;2023-07-31T12:10:44;23.70;99.90
23568;DHT22;11962;50.838;4.430;2023-07-31T12:13:21;24.10;99.90
23568;DHT22;11962;50.838;4.430;2023-07-31T12:15:48;24.40;99.90
23568;DHT22;11962;50.838;4.430;2023-07-31T12:18:17;24.40;99.90
23568;DHT22;11962;50.838;4.430;2023-07-31T12:20:58;24.40;99.90
23568;DHT22;11962;50.838;4.430;2023-07-31T12:23:29;24.40;99.90
23568;DHT22;11962;50.838;4.430;2023-07-31T12:28:38;23.90;99.90
23568;DHT22;11962;50.838;4.430;2023-07-31T12:31:05;23.70;99.90
23568;DHT22;11962;50.838;4.430;2023-07-31T12:33:32;23.70;99.90
23568;DHT22;11962;50.838;4.430;2023-07-31T12:36:01;23.70;99.90
23568;DHT22;11962;50.838;4.430;2023-07-31T12:38:27;23.70;99.90
23568;DHT22;11962;50.838;4.430;2023-07-31T12:40:53;23.70;99.90
23568;DHT22;11962;50.838;4.430;2023-07-31T12:43:18;23.60;99.90
23568;DHT22;11962;50.838;4.430;2023-07-31T12:45:44;23.60;99.90
23568;DHT22;11962;50.838;4.430;2023-07-31T12:48:10;23.60;99.90
23568;DHT22;11962;50.838;4.430;2023-07-31T12:50:38;23.80;99.90
23568;DHT22;11962;50.838;4.430;2023-07-31T12:53:05;24.20;99.90
23568;DHT22;11962;50.838;4.430;2023-07-31T12:55:31;24.40;99.90
23568;DHT22;11962;50.838;4.430;2023-07-31T12:58:00;24.40;99.90
23568;DHT22;11962;50.838;4.430;2023-07-31T13:00:26;24.30;99.90
23568;DHT22;11962;50.838;4.430;2023-07-31T13:02:52;24.20;99.90
23568;DHT22;11962;50.838;4.430;2023-07-31T13:05:18;23.90;99.90
23568;DHT22;11962;50.838;4.430;2023-07-31T13:07:45;23.60;99.90
23568;DHT22;11962;50.838;4.430;2023-07-31T13:10:11;23.30;99.90
23568;DHT22;11962;50.838;4.430;2023-07-31T13:12:37;23.20;99.90
23568;DHT22;11962;50.838;4.430;2023-07-31T13:15:07;23.10;99.90
23568;DHT22;11962;50.838;4.430;2023-07-31T13:17:33;23.00;99.90
23568;DHT22;11962;50.838;4.430;2023-07-31T13:19:59;22.70;99.90
23568;DHT22;11962;50.838;4.430;2023-07-31T13:22:26;22.60;99.90
23568;DHT22;11962;50.838;4.430;2023-07-31T13:24:52;22.50;99.90
23568;DHT22;11962;50.838;4.430;2023-07-31T13:27:18;22.40;99.90
23568;DHT22;11962;50.838;4.430;2023-07-31T13:29:48;22.40;99.90
23568;DHT22;11962;50.838;4.430;2023-07-31T13:32:15;22.30;99.90
23568;DHT22;11962;50.838;4.430;2023-07-31T13:34:41;22.20;99.90
23568;DHT22;11962;50.838;4.430;2023-07-31T13:37:06;22.00;99.90
23568;DHT22;11962;50.838;4.430;2023-07-31T13:39:32;21.90;99.90
23568;DHT22;11962;50.838;4.430;2023-07-31T13:42:02;21.80;99.90
23568;DHT22;11962;50.838;4.430;2023-07-31T13:44:28;21.60;99.90
23568;DHT22;11962;50.838;4.430;2023-07-31T13:46:54;21.40;99.90
23568;DHT22;11962;50.838;4.430;2023-07-31T13:49:20;21.40;99.90
23568;DHT22;11962;50.838;4.430;2023-07-31T13:51:46;21.40;99.90
23568;DHT22;11962;50.838;4.430;2023-07-31T13:54:12;21.30;99.90
23568;DHT22;11962;50.838;4.430;2023-07-31T13:56:38;21.30;99.90
23568;DHT22;11962;50.838;4.430;2023-07-31T13:59:04;21.20;99.90
23568;DHT22;11962;50.838;4.430;2023-07-31T14:01:30;21.20;99.90
23568;DHT22;11962;50.838;4.430;2023-07-31T14:03:56;21.20;99.90
23568;DHT22;11962;50.838;4.430;2023-07-31T14:06:22;21.30;99.90
23568;DHT22;11962;50.838;4.430;2023-07-31T14:08:48;21.30;99.90
23568;DHT22;11962;50.838;4.430;2023-07-31T14:11:14;21.30;99.90
23568;DHT22;11962;50.838;4.430;2023-07-31T14:13:39;21.30;99.90
23568;DHT22;11962;50.838;4.430;2023-07-31T14:16:05;21.20;99.90
23568;DHT22;11962;50.838;4.430;2023-07-31T14:18:31;21.10;99.90
23568;DHT22;11962;50.838;4.430;2023-07-31T14:20:57;21.20;99.90
23568;DHT22;11962;50.838;4.430;2023-07-31T14:23:23;21.30;99.90
23568;DHT22;11962;50.838;4.430;2023-07-31T14:25:49;21.50;99.90
23568;DHT22;11962;50.838;4.430;2023-07-31T14:28:14;21.50;99.90
23568;DHT22;11962;50.838;4.430;2023-07-31T14:30:40;21.50;99.90
23568;DHT22;11962;50.838;4.430;2023-07-31T14:33:06;21.50;99.90
23568;DHT22;11962;50.838;4.430;2023-07-31T14:35:32;21.40;99.90
23568;DHT22;11962;50.838;4.430;2023-07-31T14:37:58;21.40;99.90
23568;DHT22;11962;50.838;4.430;2023-07-31T14:40:23;21.40;99.90
23568;DHT22;11962;50.838;4.430;2023-07-31T14:42:49;21.50;99.90
23568;DHT22;11962;50.838;4.430;2023-07-31T14:45:15;21.50;99.90
23568;DHT22;11962;50.838;4.430;2023-07-31T14:47:40;21.30;99.90
23568;DHT22;11962;50.838;4.430;2023-07-31T14:50:06;21.20;99.90
23568;DHT22;11962;50.838;4.430;2023-07-31T14:52:32;21.10;99.90
23568;DHT22;11962;50.838;4.430;2023-07-31T14:54:58;21.10;99.90
23568;DHT22;11962;50.838;4.430;2023-07-31T14:57:24;21.20;99.90
23568;DHT22;11962;50.838;4.430;2023-07-31T14:59:49;21.20;99.90
23568;DHT22;11962;50.838;4.430;2023-07-31T15:02:15;21.20;99.90
23568;DHT22;11962;50.838;4.430;2023-07-31T15:04:41;21.10;99.90
23568;DHT22;11962;50.838;4.430;2023-07-31T15:07:07;20.90;99.90
23568;DHT22;11962;50.838;4.430;2023-07-31T15:09:33;20.90;99.90
23568;DHT22;11962;50.838;4.430;2023-07-31T15:11:59;20.80;99.90
23568;DHT22;11962;50.838;4.430;2023-07-31T15:14:25;20.80;99.90
23568;DHT22;11962;50.838;4.430;2023-07-31T15:16:53;20.80;99.90
23568;DHT22;11962;50.838;4.430;2023-07-31T15:19:18;20.80;99.90
23568;DHT22;11962;50.838;4.430;2023-07-31T15:21:44;20.80;99.90
23568;DHT22;11962;50.838;4.430;2023-07-31T15:24:10;20.80;99.90
23568;DHT22;11962;50.838;4.430;2023-07-31T15:26:37;20.80;99.90
23568;DHT22;11962;50.838;4.430;2023-07-31T15:29:07;20.80;99.90
23568;DHT22;11962;50.838;4.430;2023-07-31T15:31:40;20.80;99.90
23568;DHT22;11962;50.838;4.430;2023-07-31T15:34:06;20.80;99.90
23568;DHT22;11962;50.838;4.430;2023-07-31T15:36:33;20.90;99.90
23568;DHT22;11962;50.838;4.430;2023-07-31T15:39:00;20.90;99.90
23568;DHT22;11962;50.838;4.430;2023-07-31T15:41:26;20.90;99.90